Terminal Aerodrome Forecast
Issued by NWS

Home | Current Version | Previous Version | Text Only | Print | Product List | Glossary On
Versions: 1 2 3 4 5 6 7 8 9 10 11 12 13 14 15 16 17 18 19 20 21 22 23
000
FTUS45 KGJT 242339
TAFDRO
TAF
KDRO 242339Z 2500/2524 22014KT P6SM OVC100
     FM250200 25010G18KT P6SM OVC070
     FM250700 22007KT P6SM BKN080
     FM250900 26005KT P6SM VCSH OVC060
     FM251600 25009KT P6SM VCSH BKN050
     FM251800 27014G23KT P6SM BKN060=

USA.gov is the U.S. government's official web portal to all federal, state and local government web resources and services.